Calvinia Airport

Airport
ICAO code: 
FACV
Summary
ICAO Region: 
AFI
Territory: 
Location: 
, Northern Cape
Serving: 
Calvinia
Elevation: 
3250 ft
Coordinates: 
Aerial View: 
31° 30' 1.001" S, 19° 43' 33.229" E
Metar
Observation
FACV 290439Z 01003KT 1800 BR BKN000 10/10 Q1017
Station
Calvinia
Date/Time
2021-11-29 04:39:00
Wind direction
10°
Wind speed
03 kts
Lowest cloud amount
broken clouds
Temperature
10°C
Dew point
10°C
Humidity
100%
QNH
1017 hPa
Weather condition
n/a

Runways

Designator Length Width Surface Rops
9/27 1250 15 ASP No/No
Airport map: 
Aerial View: 

SKYbrary Partners:

Safety knowledge contributed by: